Briefing drone pour Riom

Rechercher une autre localisation

Conditions de vol :


Nous sommes le : Mardi 31 janvier 2023
Il est 14:14 UTC (15:14 LT)

Lever de soleil : 06:44 UTC (07:44 LT)
Coucher de soleil : 17:17 UTC (18:17 LT)

Météo

L'essentiel des conditions de vol

VIGILANCE MÉTÉO FRANCE - Puy-de-Dôme (63)
Pas de vigilances particulieres
METAR de LFLC
LFLC 311400Z AUTO 33009KT 9999 FEW028 BKN036 08/01 Q1030

Date d'émission: 31/01/2023
Heure d'émission: 14:00 UTC
Vent: 330° pour 9 KT (17 km/h)
Visibilité horizontale: > 10 km
Plafond :
- Peu de nuages à 2800ft (853m)
- Nuages morcelés à 3600ft (1097m)
Température: 8 °C
Point de rosée: 1 °C
Humidité: 61%
Pression (QNH): 1030 hPa
TAF de LFLC
LFLC 310641Z 3106/0106 CNL

Conditions prévues :

Heure d'émission : Bulletin éffectué le 31 à 06:00 UTC
Prévision : Valide du 31 a 06:00 UTC au 01 a 06:00 UTC
Nuages : à 0ft (0 m)
WEBCAM POUR RIOM

Réglementation

Voler en sécurité

CARTES AERONAUTIQUE 1/500.000
CARTE AZBA (Reseau basse altitude)
CARTES VAC (LFLC)
SUP AIP




Chargement des AIP...
NOTAM (RIOM + Terrain à proximité / FIR )




Chargement des NOTAMS...
CONTACT PREFECTURE 63
Puy-de-Dôme (63) : [email protected]


Avertissement : Les données mises à disposition sont indicatives. Oxygène Drone ne pourra être tenu responsable de dégâts causés aux biens et aux personnes.